Time;durP1;ratioP1;P1;durP2;ratioP2;P2;SDS_P1;SDS_P2;PMS_P1;PMS_P2;Temp;Humidity;BMP_temperature;BMP_pressure;BME280_temperature;BME280_humidity;BME280_pressure;Samples;Min_cycle;Max_cycle;Signal;HPM_P1;HPM_P2
2022/01/09 00:02:22;;;;;;;8.40;4.75;;;;;;;14.53;39.61;91928.97;4951369;28;20046;-82
2022/01/09 00:04:47;;;;;;;7.25;5.68;;;;;;;14.47;39.71;91922.94;4951890;28;20324;-82
2022/01/09 00:07:12;;;;;;;7.95;5.15;;;;;;;14.54;39.47;91914.13;4950976;28;20054;-82
2022/01/09 00:09:41;;;;;;;8.98;5.00;;;;;;;14.47;39.83;91909.34;4936265;28;20363;-82
2022/01/09 00:12:07;;;;;;;8.98;5.70;;;;;;;14.48;40.08;91918.97;4951589;28;20089;-82
2022/01/09 00:14:32;;;;;;;7.32;4.82;;;;;;;14.54;39.78;91899.81;4936167;28;20427;-82
2022/01/09 00:16:59;;;;;;;7.88;5.07;;;;;;;14.52;39.50;91902.31;4935577;28;20050;-82
2022/01/09 00:19:25;;;;;;;8.65;5.57;;;;;;;14.49;39.63;91895.22;4935674;28;20568;-82
2022/01/09 00:21:50;;;;;;;8.23;5.70;;;;;;;14.53;39.69;91898.34;4951223;28;20047;-82
2022/01/09 00:24:16;;;;;;;9.10;5.70;;;;;;;14.55;39.70;91887.69;4950947;28;20035;-82
2022/01/09 00:26:41;;;;;;;8.75;6.28;;;;;;;14.56;39.69;91894.59;4968873;28;20387;-82
2022/01/09 00:29:07;;;;;;;8.95;5.30;;;;;;;14.54;39.47;91892.38;4935357;28;20054;-82
2022/01/09 00:31:32;;;;;;;7.60;4.80;;;;;;;14.56;39.50;91889.16;4969157;28;20046;-82
2022/01/09 00:33:58;;;;;;;7.97;4.55;;;;;;;14.56;39.63;91886.41;4937970;28;20043;-82
2022/01/09 00:36:23;;;;;;;11.48;5.60;;;;;;;14.60;39.44;91878.69;4938727;28;20035;-82
2022/01/09 00:38:49;;;;;;;8.75;4.80;;;;;;;14.59;39.31;91875.25;4955531;28;20105;-82
2022/01/09 00:41:14;;;;;;;10.55;5.68;;;;;;;14.56;39.64;91864.66;4972106;28;20039;-82
2022/01/09 00:43:40;;;;;;;7.95;5.05;;;;;;;14.59;39.24;91872.53;4955728;28;20042;-81
2022/01/09 00:46:05;;;;;;;8.38;4.82;;;;;;;14.58;39.83;91854.75;4955507;28;20031;-81
2022/01/09 00:48:30;;;;;;;9.75;5.10;;;;;;;14.52;39.51;91856.81;4972452;28;20172;-82
2022/01/09 00:50:56;;;;;;;7.03;5.13;;;;;;;14.52;39.73;91850.66;4955126;28;20027;-82
2022/01/09 00:53:21;;;;;;;7.50;5.50;;;;;;;14.52;39.43;91837.06;4938867;28;20039;-82
2022/01/09 00:55:46;;;;;;;6.13;4.43;;;;;;;14.55;39.75;91838.72;4955293;28;20496;-82
2022/01/09 00:58:12;;;;;;;8.00;5.30;;;;;;;14.53;39.60;91835.81;4954776;28;20047;-83
2022/01/09 01:00:39;;;;;;;9.18;5.50;;;;;;;14.45;39.90;91837.69;4939547;28;20037;-81
2022/01/09 01:03:04;;;;;;;7.85;5.70;;;;;;;14.49;39.73;91828.00;4925021;28;20171;-82
2022/01/09 01:05:30;;;;;;;7.38;4.82;;;;;;;14.49;39.50;91827.25;4972453;28;20027;-82
2022/01/09 01:07:55;;;;;;;6.00;4.30;;;;;;;14.45;40.09;91830.28;4959560;28;20046;-82
2022/01/09 01:10:20;;;;;;;8.38;5.13;;;;;;;14.44;40.09;91819.94;4962824;28;20050;-82
2022/01/09 01:12:48;;;;;;;6.43;4.82;;;;;;;14.45;39.81;91816.69;4954193;28;20457;-82
2022/01/09 01:15:14;;;;;;;8.48;4.57;;;;;;;14.50;39.45;91810.41;4970210;28;20157;-82
2022/01/09 01:17:39;;;;;;;6.75;4.45;;;;;;;14.54;39.43;91813.53;4954826;28;20086;-82
2022/01/09 01:20:05;;;;;;;7.15;4.75;;;;;;;14.59;39.39;91806.53;4970533;28;20035;-82
2022/01/09 01:22:31;;;;;;;7.68;4.93;;;;;;;14.50;39.67;91813.13;4953941;28;20125;-81
2022/01/09 01:24:57;;;;;;;9.00;4.70;;;;;;;14.60;39.17;91802.56;4950044;28;20043;-82
2022/01/09 01:27:22;;;;;;;7.93;5.65;;;;;;;14.52;39.63;91783.41;4971619;28;20371;-82
2022/01/09 01:29:48;;;;;;;6.40;4.95;;;;;;;14.54;39.75;91782.88;4939319;28;20720;-82
2022/01/09 01:32:13;;;;;;;6.35;5.25;;;;;;;14.50;40.12;91780.50;4938658;28;20110;-82
2022/01/09 01:34:39;;;;;;;9.05;4.93;;;;;;;14.45;39.50;91770.47;4938637;28;20083;-82
2022/01/09 01:37:04;;;;;;;6.90;5.50;;;;;;;14.45;39.67;91758.88;4957727;28;20134;-82
2022/01/09 01:39:30;;;;;;;6.50;4.88;;;;;;;14.48;40.00;91750.41;4954362;28;20426;-82
2022/01/09 01:41:56;;;;;;;8.95;5.40;;;;;;;14.48;39.87;91753.13;4971263;28;20090;-82
2022/01/09 01:44:21;;;;;;;6.43;4.00;;;;;;;14.54;39.48;91751.00;4937261;28;22545;-83
2022/01/09 01:46:46;;;;;;;9.13;4.57;;;;;;;14.52;39.62;91739.19;4931957;28;20039;-82
2022/01/09 01:49:13;;;;;;;6.80;5.18;;;;;;;14.58;39.30;91723.47;4960440;28;20039;-82
2022/01/09 01:51:39;;;;;;;7.90;5.10;;;;;;;14.53;39.51;91718.88;4954795;28;20035;-82
2022/01/09 01:54:05;;;;;;;6.88;5.15;;;;;;;14.45;39.53;91724.25;4969631;28;20450;-81
2022/01/09 01:56:31;;;;;;;7.93;5.93;;;;;;;14.47;39.44;91713.59;4954519;28;20071;-83
2022/01/09 01:58:56;;;;;;;7.45;5.05;;;;;;;14.51;39.62;91705.81;4970750;28;20030;-82
2022/01/09 02:01:22;;;;;;;7.00;4.85;;;;;;;14.48;40.03;91700.72;4942787;28;20047;-82
2022/01/09 02:03:47;;;;;;;7.25;4.85;;;;;;;14.44;39.67;91701.03;4953882;28;20027;-82
2022/01/09 02:06:15;;;;;;;6.95;4.72;;;;;;;14.49;39.28;91694.75;4937468;28;20057;-82
2022/01/09 02:08:42;;;;;;;6.95;5.07;;;;;;;14.46;39.66;91690.38;4927368;28;20499;-82
2022/01/09 02:11:08;;;;;;;6.55;4.65;;;;;;;14.42;39.64;91700.09;4960020;28;20035;-82
2022/01/09 02:13:34;;;;;;;7.18;4.00;;;;;;;14.41;39.99;91693.94;4950066;28;20058;-82
2022/01/09 02:16:01;;;;;;;6.47;4.90;;;;;;;14.42;39.56;91686.50;4952208;28;20058;-82
2022/01/09 02:18:27;;;;;;;8.38;4.90;;;;;;;14.44;39.42;91682.00;4952741;28;20348;-81
2022/01/09 02:20:53;;;;;;;7.78;5.10;;;;;;;14.44;39.58;91684.00;4968168;28;20409;-82
2022/01/09 02:23:19;;;;;;;5.78;4.63;;;;;;;14.44;39.62;91681.28;4968925;28;20035;-81
2022/01/09 02:25:45;;;;;;;10.93;5.40;;;;;;;14.47;39.75;91680.22;4936989;28;20039;-82
2022/01/09 02:28:11;;;;;;;8.52;4.68;;;;;;;14.53;39.57;91672.66;4969818;28;20449;-83
2022/01/09 02:30:37;;;;;;;6.72;4.55;;;;;;;14.49;39.73;91666.84;4952984;28;20061;-82
2022/01/09 02:33:05;;;;;;;7.03;4.85;;;;;;;14.46;39.96;91657.75;4952663;28;20518;-81
2022/01/09 02:35:30;;;;;;;7.82;4.90;;;;;;;14.55;39.54;91656.56;4953632;28;20042;-82
2022/01/09 02:37:56;;;;;;;7.60;4.32;;;;;;;14.50;39.54;91654.72;4956436;28;20030;-82
2022/01/09 02:40:22;;;;;;;8.65;4.55;;;;;;;14.48;39.52;91647.09;4923495;28;20053;-82
2022/01/09 02:42:48;;;;;;;6.68;4.93;;;;;;;14.50;39.59;91636.41;4945970;28;20089;-82
2022/01/09 02:45:13;;;;;;;6.18;4.40;;;;;;;14.47;39.76;91647.59;4969990;28;20047;-81
2022/01/09 02:47:39;;;;;;;6.47;4.57;;;;;;;14.50;39.73;91643.84;4953073;28;20062;-82
2022/01/09 02:50:31;;;;;;;6.88;4.15;;;;;;;14.48;39.66;91646.34;4967542;28;20070;-82
2022/01/09 02:53:00;;;;;;;8.05;4.43;;;;;;;14.38;39.60;91633.16;4956787;28;20031;-82
2022/01/09 02:55:26;;;;;;;7.75;5.80;;;;;;;14.49;39.59;91634.22;4968404;28;20109;-82
2022/01/09 02:57:56;;;;;;;6.65;4.40;;;;;;;14.42;40.02;91621.28;4952290;28;20038;-82
2022/01/09 03:00:25;;;;;;;6.30;4.10;;;;;;;14.39;39.87;91620.31;4959555;28;20047;-81
2022/01/09 03:02:50;;;;;;;6.55;4.78;;;;;;;14.39;39.89;91612.88;4953094;28;20031;-82
2022/01/09 03:05:16;;;;;;;6.03;4.43;;;;;;;14.38;40.00;91610.69;4952128;28;20553;-82
2022/01/09 03:07:42;;;;;;;6.43;4.82;;;;;;;14.46;39.75;91611.53;4968899;28;20043;-82
2022/01/09 03:10:07;;;;;;;5.20;4.25;;;;;;;14.50;39.50;91603.06;4933880;28;20039;-82
2022/01/09 03:12:33;;;;;;;8.93;5.13;;;;;;;14.48;39.85;91605.56;4962103;28;20077;-82
2022/01/09 03:14:58;;;;;;;5.78;4.50;;;;;;;14.53;39.56;91604.69;4964411;28;20038;-82
2022/01/09 03:17:24;;;;;;;7.43;4.72;;;;;;;14.48;39.67;91598.16;4968109;28;20027;-82
2022/01/09 03:19:49;;;;;;;7.43;4.45;;;;;;;14.46;39.60;91594.50;4936624;28;20047;-82
2022/01/09 03:22:15;;;;;;;7.38;5.00;;;;;;;14.54;39.56;91596.00;4968331;28;20031;-82
2022/01/09 03:24:42;;;;;;;6.55;4.68;;;;;;;14.48;39.94;91594.69;4968201;28;20027;-82
2022/01/09 03:27:08;;;;;;;7.30;4.80;;;;;;;14.43;40.14;91596.28;4948552;28;20043;-81
2022/01/09 03:29:33;;;;;;;6.75;4.53;;;;;;;14.41;39.88;91596.06;4918059;29;20047;-82
2022/01/09 03:31:58;;;;;;;7.68;4.60;;;;;;;14.43;39.82;91601.72;4905492;28;20059;-82
2022/01/09 03:34:24;;;;;;;7.35;4.68;;;;;;;14.45;39.57;91596.47;4967590;28;20321;-82
2022/01/09 03:36:49;;;;;;;6.30;4.47;;;;;;;14.44;39.75;91594.28;4969371;28;20036;-82
2022/01/09 03:39:14;;;;;;;5.63;4.45;;;;;;;14.51;39.39;91591.63;4961841;28;20375;-82
2022/01/09 03:41:40;;;;;;;6.80;5.07;;;;;;;14.53;39.52;91588.38;4936350;28;20031;-82
2022/01/09 03:44:05;;;;;;;7.15;4.65;;;;;;;14.48;39.65;91587.28;4969361;28;20106;-82
2022/01/09 03:46:31;;;;;;;8.50;4.38;;;;;;;14.40;39.85;91586.44;4966801;28;20061;-82
2022/01/09 03:48:56;;;;;;;6.60;4.70;;;;;;;14.40;39.76;91589.16;4969353;28;20035;-82
2022/01/09 03:51:25;;;;;;;6.55;4.30;;;;;;;14.45;39.62;91582.88;4966399;28;20047;-82
2022/01/09 03:53:53;;;;;;;7.05;4.25;;;;;;;14.44;39.98;91578.72;4952411;28;20086;-82
2022/01/09 03:56:18;;;;;;;6.40;3.95;;;;;;;14.46;39.97;91578.91;4951750;28;20042;-82
2022/01/09 03:58:43;;;;;;;6.53;4.18;;;;;;;14.40;39.97;91579.03;4967925;28;20027;-82
2022/01/09 04:01:09;;;;;;;6.72;4.35;;;;;;;14.40;39.79;91575.56;4922100;28;20459;-82
2022/01/09 04:03:35;;;;;;;8.13;4.13;;;;;;;14.50;39.64;91573.88;4953098;28;20035;-82
2022/01/09 04:06:01;;;;;;;5.43;4.30;;;;;;;14.48;39.53;91576.41;4950453;28;20046;-81
2022/01/09 04:08:27;;;;;;;6.88;4.78;;;;;;;14.49;39.57;91571.69;4935652;28;20050;-82
2022/01/09 04:10:52;;;;;;;8.38;4.10;;;;;;;14.48;39.70;91576.41;4952175;28;20030;-82
2022/01/09 04:13:18;;;;;;;5.35;3.97;;;;;;;14.45;39.77;91579.44;4932196;28;20047;-82
2022/01/09 04:15:47;;;;;;;7.03;4.43;;;;;;;14.46;39.87;91570.03;4919612;28;20121;-81
2022/01/09 04:18:16;;;;;;;6.15;4.60;;;;;;;14.49;39.77;91572.41;4951909;28;20043;-82
2022/01/09 04:20:42;;;;;;;8.45;4.38;;;;;;;14.44;39.88;91578.72;4966751;28;20053;-82
2022/01/09 04:23:07;;;;;;;6.05;4.38;;;;;;;14.49;39.87;91571.69;4935193;28;20038;-82
2022/01/09 04:25:32;;;;;;;5.28;3.80;;;;;;;14.52;39.29;91568.63;4942618;28;20046;-82
2022/01/09 04:27:58;;;;;;;7.38;4.68;;;;;;;14.51;39.47;91561.72;4935871;28;20042;-82
2022/01/09 04:30:23;;;;;;;4.50;3.70;;;;;;;14.56;39.29;91544.56;4925108;28;20035;-82
2022/01/09 04:32:49;;;;;;;6.22;4.07;;;;;;;14.57;38.99;91543.28;4958614;28;20031;-81
2022/01/09 04:35:14;;;;;;;5.03;3.92;;;;;;;14.54;39.27;91543.63;4950627;28;20046;-82
2022/01/09 04:37:40;;;;;;;5.30;3.70;;;;;;;14.50;39.52;91541.25;4957484;28;20030;-81
2022/01/09 04:40:07;;;;;;;4.95;4.20;;;;;;;14.47;39.74;91549.75;4931809;28;20043;-82
2022/01/09 04:42:45;;;;;;;6.93;4.40;;;;;;;14.53;39.70;91544.88;4916842;29;20202;-82
2022/01/09 04:45:12;;;;;;;4.70;3.63;;;;;;;14.61;38.99;91545.69;4943820;28;20088;-82
2022/01/09 04:47:40;;;;;;;6.03;4.13;;;;;;;14.52;39.33;91555.03;4949637;28;20094;-82
2022/01/09 04:50:08;;;;;;;5.85;4.38;;;;;;;14.52;39.53;91552.31;4928163;28;20062;-82
2022/01/09 04:52:37;;;;;;;5.53;4.10;;;;;;;14.52;39.55;91555.03;4932950;28;20035;-82
2022/01/09 04:55:02;;;;;;;6.30;4.47;;;;;;;14.45;39.79;91561.13;4916370;29;20106;-83
2022/01/09 04:57:28;;;;;;;4.95;4.45;;;;;;;14.46;39.49;91559.16;4916509;29;20114;-82
2022/01/09 04:59:53;;;;;;;10.85;4.75;;;;;;;14.45;39.96;91569.28;4956696;28;20042;-82
2022/01/09 05:02:18;;;;;;;7.10;4.97;;;;;;;14.48;39.44;91567.50;4935770;28;20175;-82
2022/01/09 05:04:44;;;;;;;7.18;3.95;;;;;;;14.56;39.34;91569.03;4932428;28;20384;-82
2022/01/09 05:07:10;;;;;;;4.97;3.67;;;;;;;14.49;39.61;91569.69;4915387;28;20039;-82
2022/01/09 05:09:35;;;;;;;5.30;4.50;;;;;;;14.50;39.67;91571.16;4932397;29;20043;-82
2022/01/09 05:12:00;;;;;;;4.88;3.63;;;;;;;14.48;39.42;91575.66;4965097;28;20342;-82
2022/01/09 05:14:26;;;;;;;7.10;4.25;;;;;;;14.56;39.37;91579.16;4942838;28;20514;-82
2022/01/09 05:16:51;;;;;;;5.90;3.80;;;;;;;14.60;39.04;91583.03;4951402;28;20494;-82
2022/01/09 05:19:19;;;;;;;5.13;3.80;;;;;;;14.54;39.44;91601.44;4969330;28;20038;-82
2022/01/09 05:21:45;;;;;;;5.70;3.70;;;;;;;14.56;39.44;91592.75;4955120;28;20046;-82
2022/01/09 05:24:10;;;;;;;4.05;3.65;;;;;;;14.49;39.60;91601.59;4938017;28;20027;-82
2022/01/09 05:26:36;;;;;;;6.25;3.75;;;;;;;14.59;39.36;91610.75;4958879;28;20054;-81
2022/01/09 05:29:01;;;;;;;7.45;4.25;;;;;;;14.53;39.45;91610.88;4953485;28;20043;-82
2022/01/09 05:31:26;;;;;;;5.25;4.22;;;;;;;14.58;39.45;91603.84;4952556;28;20042;-82
2022/01/09 05:33:52;;;;;;;5.55;3.67;;;;;;;14.55;39.62;91611.06;4971500;28;20050;-82
2022/01/09 05:36:17;;;;;;;6.20;3.95;;;;;;;14.54;39.57;91617.75;4953379;28;20050;-82
2022/01/09 05:38:43;;;;;;;5.38;3.90;;;;;;;14.59;39.29;91616.91;4971595;28;20027;-82
2022/01/09 05:41:08;;;;;;;6.25;4.43;;;;;;;14.55;39.64;91621.22;4946104;28;20051;-82
2022/01/09 05:43:33;;;;;;;7.97;4.50;;;;;;;14.56;39.51;91614.53;4952541;28;20045;-82
2022/01/09 05:45:59;;;;;;;6.70;4.20;;;;;;;14.55;39.59;91615.78;4961243;28;20429;-82
2022/01/09 05:48:24;;;;;;;4.32;3.78;;;;;;;14.55;39.54;91604.91;4959712;28;20045;-82
2022/01/09 05:50:50;;;;;;;4.43;3.60;;;;;;;14.54;39.20;91598.72;4954568;28;20039;-81
2022/01/09 05:53:15;;;;;;;6.47;3.90;;;;;;;14.45;39.54;91590.31;4953511;28;20560;-82
2022/01/09 05:55:40;;;;;;;6.13;4.07;;;;;;;14.46;39.41;91591.78;4952530;28;20034;-82
2022/01/09 05:58:06;;;;;;;5.28;4.07;;;;;;;14.49;39.59;91588.72;4971345;28;20486;-82
2022/01/09 06:00:31;;;;;;;4.65;3.67;;;;;;;14.53;39.29;91593.81;4960446;28;20409;-82
2022/01/09 06:02:57;;;;;;;6.57;4.15;;;;;;;14.49;39.63;91596.16;4934804;28;20042;-82
2022/01/09 06:05:23;;;;;;;5.97;4.15;;;;;;;14.46;39.69;91597.22;4935771;28;20035;-82
2022/01/09 06:07:48;;;;;;;5.28;4.28;;;;;;;14.46;39.60;91576.19;4951810;28;20031;-82
2022/01/09 06:10:14;;;;;;;3.65;3.08;;;;;;;14.56;39.14;91582.63;4950884;28;20105;-83
2022/01/09 06:12:39;;;;;;;6.75;4.13;;;;;;;14.46;39.65;91589.78;4950407;28;20047;-82
2022/01/09 06:15:05;;;;;;;7.68;4.82;;;;;;;14.46;39.47;91592.50;4968426;28;20410;-82
2022/01/09 06:17:37;;;;;;;6.35;3.67;;;;;;;14.52;39.50;91579.50;4952768;28;20546;-82
2022/01/09 06:20:04;;;;;;;4.95;3.53;;;;;;;14.51;39.40;91558.28;4968453;28;20474;-81
2022/01/09 06:22:29;;;;;;;5.35;4.00;;;;;;;14.49;39.71;91563.53;4950950;28;20035;-82
2022/01/09 06:24:54;;;;;;;5.68;4.00;;;;;;;14.46;39.82;91559.88;4941414;28;20121;-82
2022/01/09 06:27:21;;;;;;;6.85;3.50;;;;;;;14.53;39.70;91561.19;4970241;28;20035;-82
2022/01/09 06:29:46;;;;;;;5.03;3.78;;;;;;;14.50;39.32;91559.56;4970036;28;20043;-82
2022/01/09 06:32:12;;;;;;;5.07;3.72;;;;;;;14.46;39.76;91565.31;4968450;28;20051;-82
2022/01/09 06:34:37;;;;;;;3.75;3.35;;;;;;;14.55;39.23;91553.97;4969490;28;20035;-82
2022/01/09 06:37:03;;;;;;;8.45;4.03;;;;;;;14.48;39.44;91551.19;4945618;28;20043;-82
2022/01/09 06:39:28;;;;;;;5.38;4.30;;;;;;;14.40;39.64;91543.69;4923430;28;20038;-82
2022/01/09 06:41:57;;;;;;;5.03;3.40;;;;;;;14.47;39.45;91552.47;4936982;28;20057;-82
2022/01/09 06:44:22;;;;;;;4.50;3.60;;;;;;;14.47;39.75;91555.91;4936269;28;20565;-82
2022/01/09 06:46:48;;;;;;;5.00;3.67;;;;;;;14.48;39.39;91551.19;4953481;28;20031;-82
2022/01/09 06:49:13;;;;;;;5.40;3.75;;;;;;;14.47;39.82;91553.19;4968656;28;20556;-82
2022/01/09 06:51:38;;;;;;;6.28;3.60;;;;;;;14.52;39.64;91549.59;4970415;28;20023;-82
2022/01/09 06:54:04;;;;;;;5.03;3.50;;;;;;;14.45;39.47;91549.53;4968393;28;20498;-81
2022/01/09 06:56:29;;;;;;;6.65;4.03;;;;;;;14.38;39.94;91550.88;4952788;28;20039;-82
2022/01/09 06:58:55;;;;;;;5.28;3.78;;;;;;;14.50;39.46;91554.13;4969037;28;20031;-81
2022/01/09 07:01:20;;;;;;;5.80;4.20;;;;;;;14.46;39.76;91548.28;4933873;28;20526;-82
2022/01/09 07:03:45;;;;;;;4.05;3.13;;;;;;;14.57;39.12;91548.00;4929441;28;20546;-82
2022/01/09 07:06:11;;;;;;;3.70;3.15;;;;;;;14.60;38.90;91563.25;4951838;28;20490;-82
2022/01/09 07:08:36;;;;;;;5.88;3.65;;;;;;;14.53;39.56;91563.91;4948992;28;20051;-82
2022/01/09 07:11:02;;;;;;;4.35;3.13;;;;;;;14.46;39.60;91562.59;4947200;28;20034;-83
2022/01/09 07:13:28;;;;;;;4.47;3.22;;;;;;;14.50;39.64;91562.28;4960195;28;20042;-81
2022/01/09 07:15:53;;;;;;;5.85;3.55;;;;;;;14.46;39.67;91565.31;4941318;28;20029;-82
2022/01/09 07:18:19;;;;;;;5.22;3.38;;;;;;;14.49;39.79;91556.09;4951259;28;20050;-82
2022/01/09 07:20:44;;;;;;;6.20;4.07;;;;;;;14.50;39.83;91578.59;4970348;28;20117;-82
2022/01/09 07:23:09;;;;;;;5.68;4.07;;;;;;;14.50;39.68;91582.03;4967441;28;20039;-82
2022/01/09 07:25:35;;;;;;;4.88;3.50;;;;;;;14.49;39.55;91582.56;4964540;28;20039;-82
2022/01/09 07:28:02;;;;;;;6.05;3.83;;;;;;;14.47;39.66;91572.22;4952705;28;20039;-83
2022/01/09 07:30:28;;;;;;;5.80;3.88;;;;;;;14.50;39.75;91586.75;4950923;28;20146;-82
2022/01/09 07:32:53;;;;;;;3.95;3.17;;;;;;;14.59;39.63;91597.16;4952036;28;20498;-82
2022/01/09 07:35:19;;;;;;;4.07;3.22;;;;;;;14.63;39.36;91600.28;4951915;28;20042;-82
2022/01/09 07:37:44;;;;;;;4.88;3.53;;;;;;;14.60;39.41;91609.47;4957361;28;20038;-82
2022/01/09 07:40:10;;;;;;;6.60;4.22;;;;;;;14.60;39.56;91609.47;4958148;28;20498;-81
2022/01/09 07:42:35;;;;;;;5.40;3.80;;;;;;;14.61;39.48;91610.94;4951982;28;20042;-82
2022/01/09 07:45:01;;;;;;;5.22;3.47;;;;;;;14.57;39.53;91613.25;4946665;28;20112;-82
2022/01/09 07:47:26;;;;;;;6.55;3.45;;;;;;;14.60;39.61;91604.03;4969446;28;20038;-82
2022/01/09 07:49:52;;;;;;;6.00;3.53;;;;;;;14.64;39.15;91596.28;4964550;28;20042;-82
2022/01/09 07:52:17;;;;;;;6.60;3.42;;;;;;;14.66;39.28;91599.22;4951086;28;20046;-82
2022/01/09 07:54:43;;;;;;;4.40;3.00;;;;;;;14.58;39.53;91596.41;4951652;28;20043;-81
2022/01/09 07:57:08;;;;;;;4.43;3.33;;;;;;;14.63;39.59;91590.13;4968089;28;20043;-81
2022/01/09 07:59:33;;;;;;;5.10;3.75;;;;;;;14.67;39.42;91589.81;4964646;28;20043;-81
2022/01/09 08:01:59;;;;;;;4.70;3.63;;;;;;;14.65;39.21;91584.16;4955894;28;20038;-82
2022/01/09 08:04:24;;;;;;;5.50;3.50;;;;;;;14.61;39.31;91586.47;4951101;28;20043;-82
2022/01/09 08:06:50;;;;;;;5.13;3.33;;;;;;;14.68;39.30;91581.13;4947674;28;20031;-81
2022/01/09 08:09:15;;;;;;;4.82;3.30;;;;;;;14.67;39.43;91581.63;4967159;28;20413;-82
2022/01/09 08:11:40;;;;;;;5.63;3.58;;;;;;;14.60;39.48;91576.84;4967148;28;20054;-81
2022/01/09 08:14:06;;;;;;;3.83;3.17;;;;;;;14.63;39.26;91587.41;4953111;28;20038;-82
2022/01/09 08:16:31;;;;;;;4.15;3.47;;;;;;;14.58;39.45;91577.38;4969840;28;20035;-82
2022/01/09 08:18:56;;;;;;;5.70;3.80;;;;;;;14.59;39.45;91586.28;4950799;28;20031;-81
2022/01/09 08:21:22;;;;;;;4.72;3.55;;;;;;;14.57;39.48;91577.91;4967219;28;20051;-82
2022/01/09 08:23:47;;;;;;;4.20;2.88;;;;;;;14.64;39.39;91585.41;4967410;28;20042;-82
2022/01/09 08:26:14;;;;;;;4.80;3.35;;;;;;;14.68;39.33;91588.53;4945350;28;20043;-83
2022/01/09 08:28:42;;;;;;;5.03;3.70;;;;;;;14.63;39.42;91598.28;4941739;28;20375;-82
2022/01/09 08:31:08;;;;;;;4.72;3.08;;;;;;;14.64;39.43;91594.31;4967345;28;20177;-82
2022/01/09 08:33:33;;;;;;;4.43;3.20;;;;;;;14.64;39.57;91597.03;4941394;28;20129;-82
2022/01/09 08:35:59;;;;;;;4.55;3.13;;;;;;;14.59;39.67;91586.28;4967204;28;20421;-82
2022/01/09 08:38:25;;;;;;;4.75;3.08;;;;;;;14.60;39.76;91590.44;4941940;28;20126;-82
2022/01/09 08:40:50;;;;;;;4.85;3.35;;;;;;;14.68;39.20;91586.56;4968664;28;20031;-82
2022/01/09 08:43:15;;;;;;;4.57;3.33;;;;;;;14.67;39.31;91587.09;4951062;28;20372;-82
2022/01/09 08:45:41;;;;;;;5.97;3.58;;;;;;;14.62;39.57;91596.09;4967829;28;20050;-82
2022/01/09 08:48:06;;;;;;;5.38;3.78;;;;;;;14.58;39.49;91599.13;4950092;28;20049;-82
2022/01/09 08:50:32;;;;;;;4.50;3.20;;;;;;;14.59;39.63;91606.03;4963489;28;20497;-82
2022/01/09 08:52:57;;;;;;;4.15;3.03;;;;;;;14.68;39.59;91607.56;4949068;28;20035;-82
2022/01/09 08:55:23;;;;;;;5.10;3.10;;;;;;;14.60;39.35;91615.66;4953507;28;20397;-82
2022/01/09 08:57:50;;;;;;;5.70;3.95;;;;;;;14.59;39.58;91627.06;4955066;28;20035;-82
2022/01/09 09:00:16;;;;;;;4.63;3.33;;;;;;;14.62;39.24;91629.47;4946365;28;20031;-82
2022/01/09 09:02:41;;;;;;;5.22;3.63;;;;;;;14.56;39.80;91628.84;4926717;28;20510;-82
2022/01/09 09:05:07;;;;;;;5.90;3.55;;;;;;;14.55;39.88;91632.81;4971067;28;20565;-81
2022/01/09 09:07:32;;;;;;;5.07;3.08;;;;;;;14.56;39.44;91634.28;4969873;28;20494;-82
2022/01/09 09:10:03;;;;;;;5.85;3.53;;;;;;;14.56;39.73;91637.00;4951893;28;20094;-82
2022/01/09 09:12:29;;;;;;;4.05;3.10;;;;;;;14.56;39.78;91647.16;4964153;28;20042;-82
2022/01/09 09:14:55;;;;;;;4.78;3.55;;;;;;;14.62;39.29;91648.50;4938816;28;20058;-82
2022/01/09 09:17:23;;;;;;;5.13;3.45;;;;;;;14.62;39.65;91658.63;4970286;28;20038;-82
2022/01/09 09:19:48;;;;;;;4.28;3.05;;;;;;;14.57;39.87;91657.50;4969136;28;20035;-82
2022/01/09 09:22:13;;;;;;;4.88;3.53;;;;;;;14.60;39.76;91653.72;4922290;28;20463;-82
2022/01/09 09:24:40;;;;;;;4.90;3.95;;;;;;;14.59;39.61;91663.13;4938923;28;20038;-82
2022/01/09 09:27:05;;;;;;;4.00;3.03;;;;;;;14.62;39.58;91667.53;4971448;28;20039;-82
2022/01/09 09:29:31;;;;;;;3.83;3.25;;;;;;;14.65;39.53;91674.63;4957837;28;20049;-82
2022/01/09 09:31:56;;;;;;;5.13;2.63;;;;;;;14.71;39.62;91666.34;4959263;28;20043;-82
2022/01/09 09:34:22;;;;;;;4.68;3.47;;;;;;;14.69;39.33;91677.03;4919240;28;20035;-82
2022/01/09 09:36:47;;;;;;;5.63;3.97;;;;;;;14.66;39.38;91681.53;4959433;28;20035;-82
2022/01/09 09:39:13;;;;;;;4.75;3.35;;;;;;;14.69;39.34;91674.31;4964322;28;20050;-82
2022/01/09 09:41:41;;;;;;;6.07;3.78;;;;;;;14.64;39.64;91675.88;4938616;28;20038;-82
2022/01/09 09:44:09;;;;;;;6.15;2.88;;;;;;;14.73;39.49;91682.84;4946124;28;20043;-82
2022/01/09 09:46:34;;;;;;;5.10;2.97;;;;;;;14.70;40.07;91679.22;4953492;28;20027;-83
2022/01/09 09:49:00;;;;;;;4.75;3.25;;;;;;;14.69;39.68;91685.91;4932965;28;20057;-82
2022/01/09 09:51:25;;;;;;;4.57;3.42;;;;;;;14.63;39.79;91679.13;4937828;28;20050;-82
2022/01/09 09:53:52;;;;;;;4.60;2.83;;;;;;;14.64;39.69;91684.03;4954564;28;20355;-83
2022/01/09 09:56:17;;;;;;;3.80;3.20;;;;;;;14.71;39.70;91682.69;4922363;28;20081;-82
2022/01/09 09:58:43;;;;;;;4.65;3.17;;;;;;;14.72;39.63;91690.28;4951034;28;20512;-82
2022/01/09 10:01:23;;;;;;;4.35;3.33;;;;;;;14.68;39.51;91692.63;4943869;28;20484;-82
2022/01/09 10:03:58;;;;;;;4.40;3.35;;;;;;;14.77;39.30;91696.13;4935238;28;20040;-82
2022/01/09 10:06:42;;;;;;;5.07;3.10;;;;;;;14.69;39.37;91693.34;4934442;28;20067;-82
2022/01/09 10:09:15;;;;;;;5.32;3.25;;;;;;;14.66;39.69;91694.41;4932264;28;20070;-82
2022/01/09 10:11:50;;;;;;;5.00;3.50;;;;;;;14.63;39.79;91700.88;4951865;28;20379;-82
2022/01/09 10:14:25;;;;;;;4.60;3.08;;;;;;;14.68;39.53;91700.78;4966565;28;20134;-82
2022/01/09 10:17:04;;;;;;;3.72;3.25;;;;;;;14.67;39.61;91704.75;4953553;28;20034;-82
2022/01/09 10:19:40;;;;;;;4.60;2.92;;;;;;;14.66;39.95;91708.72;4970564;28;20525;-82
2022/01/09 10:22:05;;;;;;;5.15;3.50;;;;;;;14.68;39.77;91713.63;4968925;28;20050;-82
2022/01/09 10:24:31;;;;;;;4.13;3.15;;;;;;;14.73;39.46;91712.78;4937858;28;20031;-82
2022/01/09 10:26:57;;;;;;;4.18;3.20;;;;;;;14.71;39.90;91712.59;4951965;28;20426;-82
2022/01/09 10:29:22;;;;;;;5.47;3.45;;;;;;;14.69;40.08;91721.28;4952077;28;20042;-82
2022/01/09 10:31:50;;;;;;;3.83;3.13;;;;;;;14.72;39.65;91716.78;4953506;28;20039;-82
2022/01/09 10:34:16;;;;;;;4.28;3.63;;;;;;;14.70;39.83;91724.72;4953503;28;20035;-83
2022/01/09 10:36:49;;;;;;;6.05;3.35;;;;;;;14.66;39.52;91735.94;4951527;28;20045;-82
2022/01/09 10:39:36;;;;;;;3.90;2.75;;;;;;;14.68;39.57;91729.97;4960792;28;20031;-82
2022/01/09 10:42:03;;;;;;;3.53;2.92;;;;;;;14.63;39.92;91739.69;4957551;28;20045;-82
2022/01/09 10:44:32;;;;;;;3.40;2.83;;;;;;;14.65;39.89;91745.34;4942886;28;20042;-82
2022/01/09 10:46:59;;;;;;;4.30;3.08;;;;;;;14.65;39.69;91734.47;4949416;28;20089;-81
2022/01/09 10:49:37;;;;;;;4.97;3.47;;;;;;;14.69;39.40;91747.75;4938255;28;20039;-81
2022/01/09 10:52:15;;;;;;;4.35;3.38;;;;;;;14.68;39.62;91744.28;4948454;28;20038;-82
2022/01/09 10:54:42;;;;;;;4.45;3.22;;;;;;;14.72;39.48;91747.41;4949576;28;20041;-81
2022/01/09 10:57:09;;;;;;;4.90;3.22;;;;;;;14.70;39.75;91749.19;4944268;28;20035;-81
2022/01/09 10:59:35;;;;;;;4.63;2.95;;;;;;;14.73;39.53;91751.56;4944383;28;20062;-81
2022/01/09 11:02:00;;;;;;;3.90;2.97;;;;;;;14.72;39.83;91752.84;4955681;28;20034;-82
2022/01/09 11:04:25;;;;;;;5.30;3.92;;;;;;;14.68;39.85;91763.31;4945623;28;20462;-83
2022/01/09 11:06:51;;;;;;;4.07;3.00;;;;;;;14.71;39.67;91765.00;4951825;28;20058;-82
2022/01/09 11:09:18;;;;;;;5.43;3.70;;;;;;;14.67;39.65;91763.84;4965396;28;20770;-82
2022/01/09 11:11:44;;;;;;;4.88;3.83;;;;;;;14.64;40.03;91762.91;4940826;28;20035;-82
2022/01/09 11:14:17;;;;;;;4.53;3.33;;;;;;;14.79;39.50;91759.63;4939332;28;20070;-82
2022/01/09 11:16:51;;;;;;;4.40;3.13;;;;;;;14.74;39.59;91763.91;4922417;28;20038;-82
2022/01/09 11:19:18;;;;;;;3.60;2.47;;;;;;;14.75;39.50;91765.38;4928550;28;20054;-81
2022/01/09 11:21:52;;;;;;;4.38;3.28;;;;;;;14.70;39.84;91770.97;4959931;28;20970;-81
2022/01/09 11:24:48;;;;;;;3.70;2.70;;;;;;;14.68;39.75;91771.47;4945162;28;20911;-81
2022/01/09 11:27:27;;;;;;;3.65;3.17;;;;;;;14.66;39.78;91784.88;4955030;28;20061;-82
2022/01/09 11:30:05;;;;;;;3.50;2.97;;;;;;;14.73;39.56;91786.19;4968482;28;20134;-81
2022/01/09 11:33:02;;;;;;;5.10;2.83;;;;;;;14.71;39.63;91784.03;4957742;28;20070;-82